Time;durP1;ratioP1;P1;durP2;ratioP2;P2;SDS_P1;SDS_P2;PMS_P1;PMS_P2;Temp;Humidity;BMP_temperature;BMP_pressure;BME280_temperature;BME280_humidity;BME280_pressure;Samples;Min_cycle;Max_cycle;Signal;HPM_P1;HPM_P2
2021/12/09 00:01:07;;;;;;;;;;;;;;;-2.62;92.19;97162.97;1735835;81;22032;-85
2021/12/09 00:03:35;;;;;;;;;;;;;;;-2.56;92.25;97161.42;1740798;82;26070;-86
2021/12/09 00:06:03;;;;;;;;;;;;;;;-2.56;92.30;97155.86;1739584;81;24506;-85
2021/12/09 00:08:32;;;;;;;;;;;;;;;-2.59;92.29;97151.31;1717360;82;20332;-85
2021/12/09 00:11:00;;;;;;;;;;;;;;;-2.61;92.31;97146.69;1750313;81;25085;-85
2021/12/09 00:13:34;;;;;;;;;;;;;;;-2.63;92.30;97148.49;1749075;80;22016;-85
2021/12/09 00:15:59;;;;;;;;;;;;;;;-2.63;92.29;97153.61;1728908;81;21560;-85
2021/12/09 00:18:25;;;;;;;;;;;;;;;-2.66;92.29;97144.75;1756758;81;20313;-85
2021/12/09 00:20:51;;;;;;;;;;;;;;;-2.69;92.28;97139.32;1752701;81;20249;-85
2021/12/09 00:23:19;;;;;;;;;;;;;;;-2.71;92.27;97138.53;1754937;80;25862;-85
2021/12/09 00:25:45;;;;;;;;;;;;;;;-2.70;92.27;97138.09;1758704;81;22019;-86
2021/12/09 00:28:15;;;;;;;;;;;;;;;-2.70;92.25;97136.81;1754045;81;26308;-85
2021/12/09 00:30:39;;;;;;;;;;;;;;;-2.69;92.25;97141.05;1753210;81;24427;-85
2021/12/09 00:33:11;;;;;;;;;;;;;;;-2.70;92.25;97140.65;1749062;81;20130;-85
2021/12/09 00:35:49;;;;;;;;;;;;;;;-2.68;92.27;97135.03;1755805;81;25061;-85
2021/12/09 00:38:07;;;;;;;;;;;;;;;-2.66;92.28;97138.35;1754893;81;21979;-85
2021/12/09 00:40:34;;;;;;;;;;;;;;;-2.64;92.29;97141.26;1753150;80;22775;-85
2021/12/09 00:43:04;;;;;;;;;;;;;;;-2.65;92.30;97131.90;1754978;81;24424;-85
2021/12/09 00:45:28;;;;;;;;;;;;;;;-2.65;92.31;97136.19;1758598;80;20447;-85
2021/12/09 00:47:54;;;;;;;;;;;;;;;-2.63;92.34;97136.97;1783580;79;24910;-85
2021/12/09 00:50:20;;;;;;;;;;;;;;;-2.61;92.34;97132.16;1749832;81;21983;-85
2021/12/09 00:52:48;;;;;;;;;;;;;;;-2.59;92.35;97128.27;1750240;81;26668;-85
2021/12/09 00:55:17;;;;;;;;;;;;;;;-2.60;92.37;97124.88;1752719;81;24468;-86
2021/12/09 00:57:44;;;;;;;;;;;;;;;-2.58;92.40;97124.83;1756232;81;20395;-85
2021/12/09 01:00:11;;;;;;;;;;;;;;;-2.57;92.41;97126.05;1746085;81;25060;-85
2021/12/09 01:02:37;;;;;;;;;;;;;;;-2.56;92.42;97126.86;1751104;81;22753;-85
2021/12/09 01:05:05;;;;;;;;;;;;;;;-2.51;92.47;97131.38;1758068;81;26180;-85
2021/12/09 01:07:32;;;;;;;;;;;;;;;-2.49;92.48;97120.61;1758476;80;25455;-85
2021/12/09 01:09:58;;;;;;;;;;;;;;;-2.51;92.50;97121.14;1755078;81;20271;-85
2021/12/09 01:12:24;;;;;;;;;;;;;;;-2.51;92.51;97119.86;1752427;80;20745;-85
2021/12/09 01:14:50;;;;;;;;;;;;;;;-2.51;92.49;97104.49;1749150;81;22135;-85
2021/12/09 01:17:16;;;;;;;;;;;;;;;-2.53;92.50;97108.83;1754690;81;26028;-85
2021/12/09 01:19:42;;;;;;;;;;;;;;;-2.53;92.49;97112.67;1753166;81;24533;-85
2021/12/09 01:22:09;;;;;;;;;;;;;;;-2.51;92.50;97110.89;1748252;81;20164;-85
2021/12/09 01:24:36;;;;;;;;;;;;;;;-2.50;92.51;97107.86;1750706;81;25173;-85
2021/12/09 01:27:02;;;;;;;;;;;;;;;-2.47;92.54;97102.19;1753679;80;22362;-85
2021/12/09 01:29:35;;;;;;;;;;;;;;;-2.44;92.55;97099.49;1749256;81;25982;-85
2021/12/09 01:32:00;;;;;;;;;;;;;;;-2.41;92.58;97108.36;1753526;80;24579;-85
2021/12/09 01:34:24;;;;;;;;;;;;;;;-2.36;92.62;97098.75;1751447;81;20259;-85
2021/12/09 01:36:50;;;;;;;;;;;;;;;-2.33;92.62;97096.06;1748178;81;24973;-85
2021/12/09 01:39:17;;;;;;;;;;;;;;;-2.31;92.67;97109.65;1753888;81;21952;-85
2021/12/09 01:41:44;;;;;;;;;;;;;;;-2.26;92.70;97117.15;1754473;81;25995;-85
2021/12/09 01:44:13;;;;;;;;;;;;;;;-2.23;92.74;97109.33;1746531;81;24353;-85
2021/12/09 01:46:39;;;;;;;;;;;;;;;-2.20;92.77;97106.21;1747975;80;20212;-85
2021/12/09 01:49:07;;;;;;;;;;;;;;;-2.20;92.78;97106.66;1756488;81;20885;-85
2021/12/09 01:51:33;;;;;;;;;;;;;;;-2.22;92.77;97107.98;1755375;81;22026;-85
2021/12/09 01:53:59;;;;;;;;;;;;;;;-2.20;92.78;97106.66;1747855;81;25399;-85
2021/12/09 01:56:26;;;;;;;;;;;;;;;-2.21;92.76;97099.86;1748318;81;24510;-85
2021/12/09 01:58:58;;;;;;;;;;;;;;;-2.22;92.75;97099.47;1746350;81;20136;-84
2021/12/09 02:01:25;;;;;;;;;;;;;;;-2.23;92.75;97106.31;1754417;81;25035;-85
2021/12/09 02:03:57;;;;;;;;;;;;;;;-2.23;92.74;97105.03;1752849;81;22001;-84
2021/12/09 02:06:20;;;;;;;;;;;;;;;-2.24;92.73;97112.36;1751441;81;26029;-85
2021/12/09 02:08:47;;;;;;;;;;;;;;;-2.26;92.70;97113.30;1756833;80;24525;-85
2021/12/09 02:11:13;;;;;;;;;;;;;;;-2.27;92.67;97111.19;1750267;81;20222;-84
2021/12/09 02:13:39;;;;;;;;;;;;;;;-2.29;92.67;97110.41;1756371;81;25798;-84
2021/12/09 02:16:05;;;;;;;;;;;;;;;-2.27;92.65;97113.75;1757388;81;22142;-84
2021/12/09 02:18:37;;;;;;;;;;;;;;;-2.26;92.66;97110.74;1753159;81;27084;-85
2021/12/09 02:21:08;;;;;;;;;;;;;;;-2.26;92.65;97110.74;1742568;81;24483;-84
2021/12/09 02:23:35;;;;;;;;;;;;;;;-2.25;92.66;97111.13;1753752;80;20223;-85
2021/12/09 02:26:02;;;;;;;;;;;;;;;-2.20;92.68;97113.90;1749107;81;25968;-85
2021/12/09 02:28:30;;;;;;;;;;;;;;;-2.20;92.71;97102.37;1753048;80;21893;-84
2021/12/09 02:30:57;;;;;;;;;;;;;;;-2.21;92.70;97109.66;1758167;81;26022;-85
2021/12/09 02:33:22;;;;;;;;;;;;;;;-2.20;92.71;97113.06;1757078;80;24474;-85
2021/12/09 02:35:49;;;;;;;;;;;;;;;-2.17;92.73;97107.80;1755158;80;20201;-85
2021/12/09 02:38:15;;;;;;;;;;;;;;;-2.14;92.76;97123.91;1756269;81;24926;-85
2021/12/09 02:40:41;;;;;;;;;;;;;;;-2.11;92.77;97123.77;1752559;81;22665;-84
2021/12/09 02:43:08;;;;;;;;;;;;;;;-2.13;92.77;97128.11;1758456;81;25916;-85
2021/12/09 02:45:37;;;;;;;;;;;;;;;-2.13;92.78;97124.27;1754525;81;24509;-85
2021/12/09 02:48:04;;;;;;;;;;;;;;;-2.12;92.81;97134.91;1754640;81;20204;-85
2021/12/09 02:50:30;;;;;;;;;;;;;;;-2.09;92.81;97134.41;1747807;81;25087;-85
2021/12/09 02:52:56;;;;;;;;;;;;;;;-2.09;92.81;97139.53;1754729;81;22093;-85
2021/12/09 02:55:22;;;;;;;;;;;;;;;-2.10;92.82;97141.26;1742886;81;25940;-85
2021/12/09 02:57:50;;;;;;;;;;;;;;;-2.08;92.82;97142.48;1752468;81;24477;-85
2021/12/09 03:00:20;;;;;;;;;;;;;;;-2.09;92.84;97133.13;1759776;80;20147;-86
2021/12/09 03:02:46;;;;;;;;;;;;;;;-2.11;92.83;97131.45;1748102;81;25199;-85
2021/12/09 03:05:17;;;;;;;;;;;;;;;-2.09;92.82;97116.47;1749797;80;22105;-86
2021/12/09 03:07:49;;;;;;;;;;;;;;;-2.11;92.84;97110.95;1756520;80;26126;-86
2021/12/09 03:10:20;;;;;;;;;;;;;;;-2.12;92.83;97105.44;1740287;81;24505;-86
2021/12/09 03:12:54;;;;;;;;;;;;;;;-2.11;92.83;97117.36;1719159;81;20148;-86
2021/12/09 03:15:22;;;;;;;;;;;;;;;-2.11;92.83;97119.92;1743884;81;25069;-86
2021/12/09 03:17:49;;;;;;;;;;;;;;;-2.08;92.83;97120.70;1743074;80;22733;-85
2021/12/09 03:20:17;;;;;;;;;;;;;;;-2.07;92.86;97115.97;1738135;81;25984;-86
2021/12/09 03:22:43;;;;;;;;;;;;;;;-2.05;92.87;97120.56;1736336;81;24451;-84
2021/12/09 03:25:10;;;;;;;;;;;;;;;-2.03;92.89;97121.34;1733374;82;20160;-84
2021/12/09 03:27:41;;;;;;;;;;;;;;;-2.01;92.91;97128.06;1734037;80;25059;-85
2021/12/09 03:30:09;;;;;;;;;;;;;;;-2.00;92.94;97122.48;1737632;81;22155;-85
2021/12/09 03:32:36;;;;;;;;;;;;;;;-2.00;92.95;97120.77;1726423;81;26818;-84
2021/12/09 03:35:05;;;;;;;;;;;;;;;-2.00;92.97;97118.64;1720579;82;22130;-84
2021/12/09 03:37:31;;;;;;;;;;;;;;;-2.02;92.98;97124.30;1758114;80;20133;-85
2021/12/09 03:39:57;;;;;;;;;;;;;;;-2.03;92.96;97132.44;1759266;79;25776;-85
2021/12/09 03:42:25;;;;;;;;;;;;;;;-2.00;92.99;97131.02;1746348;81;22046;-85
2021/12/09 03:44:52;;;;;;;;;;;;;;;-1.99;92.99;97116.47;1752811;81;26153;-88
2021/12/09 03:47:20;;;;;;;;;;;;;;;-1.98;93.00;97113.02;1772931;80;24441;-85
2021/12/09 03:49:46;;;;;;;;;;;;;;;-1.99;93.01;97116.47;1747899;80;20219;-86
2021/12/09 03:52:12;;;;;;;;;;;;;;;-1.98;93.04;97114.30;1748443;81;20342;-86
2021/12/09 03:54:41;;;;;;;;;;;;;;;-1.99;93.02;97108.34;1752208;81;22872;-85
2021/12/09 03:57:09;;;;;;;;;;;;;;;-1.95;93.04;97120.13;1751531;81;25929;-85
2021/12/09 03:59:36;;;;;;;;;;;;;;;-1.94;93.06;97119.23;1740120;81;24522;-85
2021/12/09 04:02:02;;;;;;;;;;;;;;;-1.92;93.07;97114.05;1757297;80;20505;-85
2021/12/09 04:04:29;;;;;;;;;;;;;;;-1.87;93.10;97127.06;1755575;81;25013;-85
2021/12/09 04:06:57;;;;;;;;;;;;;;;-1.79;93.15;97117.30;1750390;81;22029;-85
2021/12/09 04:09:23;;;;;;;;;;;;;;;-1.79;93.17;97105.77;1744013;81;26075;-85
2021/12/09 04:11:50;;;;;;;;;;;;;;;-1.80;93.19;97109.70;1755017;81;24412;-87
2021/12/09 04:14:20;;;;;;;;;;;;;;;-1.81;93.21;97111.42;1732787;81;20174;-87
2021/12/09 04:16:48;;;;;;;;;;;;;;;-1.83;93.21;97117.05;1754463;81;24962;-87
2021/12/09 04:19:14;;;;;;;;;;;;;;;-1.84;93.20;97110.70;1751393;80;22779;-85
2021/12/09 04:21:50;;;;;;;;;;;;;;;-1.87;93.17;97097.58;1755009;81;26732;-87
2021/12/09 04:24:17;;;;;;;;;;;;;;;-1.88;93.15;97095.07;1751450;81;24633;-85
2021/12/09 04:26:45;;;;;;;;;;;;;;;-1.89;93.16;97106.22;1755045;81;20473;-87
2021/12/09 04:29:14;;;;;;;;;;;;;;;-1.90;93.16;97095.13;1756139;81;25615;-86
2021/12/09 04:31:47;;;;;;;;;;;;;;;-1.90;93.15;97095.13;1750304;81;22123;-84
2021/12/09 04:34:14;;;;;;;;;;;;;;;-1.88;93.14;97092.51;1738864;81;25964;-85
2021/12/09 04:36:40;;;;;;;;;;;;;;;-1.90;93.14;97095.13;1755668;81;25311;-85
2021/12/09 04:39:12;;;;;;;;;;;;;;;-1.87;93.16;97094.18;1753638;81;20306;-84
2021/12/09 04:41:38;;;;;;;;;;;;;;;-1.84;93.15;97094.04;1743668;81;25962;-84
2021/12/09 04:44:08;;;;;;;;;;;;;;;-1.83;93.17;97091.86;1755622;81;22591;-84
2021/12/09 04:46:34;;;;;;;;;;;;;;;-1.75;93.22;97112.91;1750818;81;26072;-84
2021/12/09 04:49:00;;;;;;;;;;;;;;;-1.63;93.27;97120.05;1753833;81;24502;-85
2021/12/09 04:51:27;;;;;;;;;;;;;;;-1.57;93.33;97115.95;1753831;80;20151;-84
2021/12/09 04:53:53;;;;;;;;;;;;;;;-1.56;93.36;97103.51;1744202;81;25696;-84
2021/12/09 04:56:24;;;;;;;;;;;;;;;-1.58;93.41;97093.75;1754804;81;22088;-85
2021/12/09 04:58:47;;;;;;;;;;;;;;;-1.61;93.40;97091.78;1743521;81;26181;-84
2021/12/09 05:01:14;;;;;;;;;;;;;;;-1.60;93.42;97101.98;1756311;81;24456;-84
2021/12/09 05:03:44;;;;;;;;;;;;;;;-1.58;93.41;97111.71;1754714;81;20244;-85
2021/12/09 05:06:11;;;;;;;;;;;;;;;-1.57;93.44;97113.38;1742192;81;24995;-85
2021/12/09 05:08:40;;;;;;;;;;;;;;;-1.53;93.42;97104.68;1756841;81;21985;-85
2021/12/09 05:11:10;;;;;;;;;;;;;;;-1.57;93.43;97109.53;1753537;81;26063;-85
2021/12/09 05:13:34;;;;;;;;;;;;;;;-1.55;93.44;97112.04;1757501;80;24599;-85
2021/12/09 05:16:02;;;;;;;;;;;;;;;-1.60;93.41;97109.67;1755696;81;20259;-86
2021/12/09 05:18:29;;;;;;;;;;;;;;;-1.59;93.40;97111.80;1753596;81;25028;-85
2021/12/09 05:20:58;;;;;;;;;;;;;;;-1.58;93.39;97126.30;1734386;81;22497;-85
2021/12/09 05:23:24;;;;;;;;;;;;;;;-1.56;93.39;97110.38;1742086;81;26012;-85
2021/12/09 05:25:52;;;;;;;;;;;;;;;-1.59;93.37;97088.71;1727248;81;20462;-85
2021/12/09 05:28:19;;;;;;;;;;;;;;;-1.59;93.36;97115.20;1747405;81;20243;-85
2021/12/09 05:33:32;;;;;;;;;;;;;;;-1.39;93.41;97121.58;1750055;81;21980;-85
2021/12/09 05:35:57;;;;;;;;;;;;;;;-1.41;93.44;97129.78;1756682;81;26029;-85
2021/12/09 05:38:24;;;;;;;;;;;;;;;-1.45;93.44;97118.44;1752256;81;24433;-85
2021/12/09 05:40:50;;;;;;;;;;;;;;;-1.48;93.41;97121.15;1752794;80;20247;-84
2021/12/09 05:43:17;;;;;;;;;;;;;;;-1.50;93.42;97141.73;1748228;81;24934;-84
2021/12/09 05:45:43;;;;;;;;;;;;;;;-1.34;93.44;97149.16;1757465;81;22083;-85
2021/12/09 05:48:10;;;;;;;;;;;;;;;-1.19;93.47;97141.67;1747439;81;26193;-85
2021/12/09 05:50:38;;;;;;;;;;;;;;;-1.23;93.47;97144.00;1747879;80;24488;-85
2021/12/09 05:53:04;;;;;;;;;;;;;;;-1.12;93.52;97158.48;1756048;81;20207;-85
2021/12/09 05:55:30;;;;;;;;;;;;;;;-0.97;93.58;97166.33;1753751;81;25659;-85
2021/12/09 05:57:56;;;;;;;;;;;;;;;-0.82;93.64;97169.14;1754076;81;22107;-85
2021/12/09 06:00:22;;;;;;;;;;;;;;;-0.65;93.72;97158.46;1752461;81;21022;-85
2021/12/09 06:02:48;;;;;;;;;;;;;;;-0.53;93.79;97159.64;1755780;81;20274;-85
2021/12/09 06:05:19;;;;;;;;;;;;;;;-0.51;93.84;97155.27;1743121;80;20530;-85
2021/12/09 06:07:45;;;;;;;;;;;;;;;-0.54;93.89;97160.09;1751982;80;25576;-85
2021/12/09 06:10:11;;;;;;;;;;;;;;;-0.52;93.93;97156.17;1755419;81;21933;-85
2021/12/09 06:12:37;;;;;;;;;;;;;;;-0.60;93.94;97147.52;1753396;81;26206;-85
2021/12/09 06:15:05;;;;;;;;;;;;;;;-0.66;93.93;97155.53;1756609;81;24474;-85
2021/12/09 06:17:31;;;;;;;;;;;;;;;-0.71;93.90;97152.31;1754620;80;20274;-85
2021/12/09 06:19:57;;;;;;;;;;;;;;;-0.58;93.90;97178.29;1756814;81;24983;-85
2021/12/09 06:22:23;;;;;;;;;;;;;;;-0.39;93.92;97191.14;1756159;81;20295;-85
2021/12/09 06:24:49;;;;;;;;;;;;;;;-0.29;93.92;97185.95;1758378;81;26755;-85
2021/12/09 06:27:15;;;;;;;;;;;;;;;-0.32;93.90;97179.20;1751893;81;24455;-85
2021/12/09 06:29:41;;;;;;;;;;;;;;;-0.44;93.86;97163.89;1752956;81;20580;-85
2021/12/09 06:32:11;;;;;;;;;;;;;;;-0.61;93.78;97160.46;1748849;81;25197;-85
2021/12/09 06:34:37;;;;;;;;;;;;;;;-0.75;93.70;97171.80;1753585;81;22111;-85
2021/12/09 06:37:04;;;;;;;;;;;;;;;-0.89;93.59;97173.70;1752717;81;26729;-85
2021/12/09 06:39:31;;;;;;;;;;;;;;;-0.94;93.47;97187.20;1735536;81;20261;-85
2021/12/09 06:41:57;;;;;;;;;;;;;;;-0.91;93.43;97194.76;1751702;81;20270;-84
2021/12/09 06:44:24;;;;;;;;;;;;;;;-0.79;93.38;97201.92;1747420;81;25016;-85
2021/12/09 06:46:50;;;;;;;;;;;;;;;-0.84;93.32;97183.33;1743127;81;22072;-85
2021/12/09 06:49:16;;;;;;;;;;;;;;;-1.00;93.24;97175.47;1753361;81;21748;-85
2021/12/09 06:51:42;;;;;;;;;;;;;;;-1.13;93.16;97178.63;1746163;80;20223;-85
2021/12/09 06:54:08;;;;;;;;;;;;;;;-1.20;93.06;97196.02;1756367;81;20317;-85
2021/12/09 06:56:35;;;;;;;;;;;;;;;-1.09;93.01;97206.66;1751859;81;25602;-85
2021/12/09 06:59:06;;;;;;;;;;;;;;;-1.05;92.98;97208.22;1730838;81;20195;-85
2021/12/09 07:01:32;;;;;;;;;;;;;;;-0.92;92.98;97191.80;1755349;81;26031;-85
2021/12/09 07:03:59;;;;;;;;;;;;;;;-0.92;92.98;97190.52;1749242;81;20199;-85
2021/12/09 07:06:28;;;;;;;;;;;;;;;-0.94;92.97;97196.19;1744574;81;20835;-85
2021/12/09 07:08:59;;;;;;;;;;;;;;;-0.91;93.00;97209.72;1756800;81;24992;-85
2021/12/09 07:11:22;;;;;;;;;;;;;;;-0.70;93.05;97214.80;1757169;80;21962;-85
2021/12/09 07:13:48;;;;;;;;;;;;;;;-0.59;93.07;97227.55;1756736;80;21034;-85
2021/12/09 07:16:18;;;;;;;;;;;;;;;-0.51;93.09;97225.48;1756127;81;25320;-85
2021/12/09 07:18:44;;;;;;;;;;;;;;;-0.39;93.16;97228.41;1747621;80;20228;-85
2021/12/09 07:21:10;;;;;;;;;;;;;;;-0.38;93.16;97227.51;1746353;81;25142;-85
2021/12/09 07:23:37;;;;;;;;;;;;;;;-0.40;93.19;97221.59;1752087;81;22029;-85
2021/12/09 07:26:03;;;;;;;;;;;;;;;-0.43;93.19;97220.81;1750242;81;25945;-85
2021/12/09 07:28:29;;;;;;;;;;;;;;;-0.40;93.20;97230.58;1754731;81;24444;-85
2021/12/09 07:30:55;;;;;;;;;;;;;;;-0.35;93.20;97220.48;1755594;81;20383;-85
2021/12/09 07:33:21;;;;;;;;;;;;;;;-0.35;93.21;97217.07;1758426;81;25007;-85
2021/12/09 07:35:48;;;;;;;;;;;;;;;-0.44;93.18;97219.63;1751870;80;21971;-85
2021/12/09 07:38:15;;;;;;;;;;;;;;;-0.52;93.14;97213.98;1757986;80;26775;-85
2021/12/09 07:40:41;;;;;;;;;;;;;;;-0.63;93.07;97213.63;1752046;81;24462;-85
2021/12/09 07:43:07;;;;;;;;;;;;;;;-0.74;92.96;97214.11;1751186;81;20297;-85
2021/12/09 07:45:33;;;;;;;;;;;;;;;-0.83;92.86;97218.83;1751402;81;20241;-85
2021/12/09 07:48:00;;;;;;;;;;;;;;;-0.92;92.75;97204.64;1745825;81;21994;-85
2021/12/09 07:50:28;;;;;;;;;;;;;;;-1.00;92.64;97209.30;1749859;81;26101;-84
2021/12/09 07:53:00;;;;;;;;;;;;;;;-1.07;92.53;97207.44;1753003;80;20203;-85
2021/12/09 07:55:24;;;;;;;;;;;;;;;-1.06;92.45;97210.39;1759193;81;20247;-85
2021/12/09 07:57:51;;;;;;;;;;;;;;;-1.12;92.36;97205.97;1755037;81;25032;-85
2021/12/09 08:00:24;;;;;;;;;;;;;;;-1.18;92.29;97217.33;1757313;81;22038;-85
2021/12/09 08:02:51;;;;;;;;;;;;;;;-1.15;92.23;97204.83;1758294;81;25992;-85
2021/12/09 08:05:27;;;;;;;;;;;;;;;-1.16;92.20;97209.13;1737229;81;22549;-85
2021/12/09 08:07:53;;;;;;;;;;;;;;;-1.15;92.17;97209.96;1756112;81;20172;-85
2021/12/09 08:10:23;;;;;;;;;;;;;;;-1.14;92.18;97214.17;1750338;81;25140;-85
2021/12/09 08:12:50;;;;;;;;;;;;;;;-1.14;92.14;97222.70;1753302;81;22607;-85
2021/12/09 08:15:20;;;;;;;;;;;;;;;-1.10;92.16;97226.00;1753869;81;25993;-85
2021/12/09 08:17:59;;;;;;;;;;;;;;;-1.07;92.13;97216.87;1754429;81;24412;-85
2021/12/09 08:20:15;;;;;;;;;;;;;;;-1.06;92.17;97216.81;1755444;79;20227;-85
2021/12/09 08:22:42;;;;;;;;;;;;;;;-1.00;92.20;97229.83;1752702;81;25218;-85
2021/12/09 08:25:14;;;;;;;;;;;;;;;-0.85;92.25;97234.30;1739301;81;20167;-84
2021/12/09 08:27:48;;;;;;;;;;;;;;;-0.72;92.34;97234.16;1751510;81;26093;-85
2021/12/09 08:30:13;;;;;;;;;;;;;;;-0.57;92.42;97216.77;1754809;81;24469;-84
2021/12/09 08:32:38;;;;;;;;;;;;;;;-0.49;92.51;97206.13;1750397;81;20162;-85
2021/12/09 08:35:05;;;;;;;;;;;;;;;-0.47;92.59;97196.17;1753133;80;24996;-85
2021/12/09 08:37:32;;;;;;;;;;;;;;;-0.47;92.61;97196.62;1751375;81;22145;-84
2021/12/09 08:40:00;;;;;;;;;;;;;;;-0.33;92.68;97213.98;1756981;81;26009;-85
2021/12/09 08:42:26;;;;;;;;;;;;;;;-0.08;92.76;97215.79;1757060;80;25236;-85
2021/12/09 08:44:55;;;;;;;;;;;;;;;0.09;92.83;97217.12;1725440;81;20225;-84
2021/12/09 08:47:21;;;;;;;;;;;;;;;0.24;92.92;97218.11;1745695;81;25033;-84
2021/12/09 08:49:47;;;;;;;;;;;;;;;0.29;92.97;97213.58;1760396;81;22001;-84
2021/12/09 08:52:14;;;;;;;;;;;;;;;0.35;92.99;97224.41;1755795;81;26146;-84
2021/12/09 08:54:40;;;;;;;;;;;;;;;0.39;93.04;97212.22;1748400;80;24284;-84
2021/12/09 08:57:06;;;;;;;;;;;;;;;0.49;93.09;97211.34;1758232;81;20212;-84
2021/12/09 08:59:36;;;;;;;;;;;;;;;0.45;93.09;97204.66;1755280;80;25723;-84
2021/12/09 09:02:03;;;;;;;;;;;;;;;0.47;93.11;97213.14;1749332;81;22091;-84
2021/12/09 09:04:29;;;;;;;;;;;;;;;0.53;93.10;97207.70;1751130;81;26172;-84
2021/12/09 09:06:59;;;;;;;;;;;;;;;0.52;93.09;97201.71;1743429;80;20250;-84
2021/12/09 09:09:27;;;;;;;;;;;;;;;0.51;93.06;97205.19;1747823;81;20235;-84
2021/12/09 09:12:00;;;;;;;;;;;;;;;0.47;93.02;97203.68;1756852;80;25759;-84
2021/12/09 09:14:26;;;;;;;;;;;;;;;0.44;92.96;97201.23;1752316;81;21982;-84
2021/12/09 09:16:52;;;;;;;;;;;;;;;0.24;92.84;97195.80;1753211;81;26737;-84
2021/12/09 09:19:18;;;;;;;;;;;;;;;0.10;92.70;97196.09;1753547;81;24466;-84
2021/12/09 09:21:44;;;;;;;;;;;;;;;0.11;92.59;97187.47;1752517;81;20242;-85
2021/12/09 09:24:11;;;;;;;;;;;;;;;0.11;92.49;97177.98;1755870;81;25014;-85
2021/12/09 09:26:37;;;;;;;;;;;;;;;0.18;92.42;97174.67;1752638;81;21889;-85
2021/12/09 09:29:03;;;;;;;;;;;;;;;0.17;92.36;97181.55;1751041;81;26750;-85
2021/12/09 09:31:31;;;;;;;;;;;;;;;0.08;92.32;97174.74;1752594;81;24475;-85
2021/12/09 09:33:59;;;;;;;;;;;;;;;-0.03;92.19;97173.53;1755595;81;20300;-85
2021/12/09 09:36:25;;;;;;;;;;;;;;;-0.05;92.11;97183.48;1756315;80;26503;-86
2021/12/09 09:38:55;;;;;;;;;;;;;;;-0.07;92.02;97182.75;1754872;81;22094;-85
2021/12/09 09:41:19;;;;;;;;;;;;;;;-0.17;91.95;97181.08;1718143;81;26021;-85
2021/12/09 09:46:19;;;;;;;;;;;;;;;-0.22;91.76;97185.57;1757022;81;20345;-85
2021/12/09 09:48:47;;;;;;;;;;;;;;;-0.22;91.72;97180.91;1739357;81;25147;-85
2021/12/09 09:51:13;;;;;;;;;;;;;;;-0.16;91.72;97171.14;1757561;81;21982;-85
2021/12/09 09:53:41;;;;;;;;;;;;;;;-0.06;91.69;97170.28;1767556;80;27110;-85
2021/12/09 09:56:13;;;;;;;;;;;;;;;-0.02;91.68;97177.77;1754443;80;24420;-85
2021/12/09 09:58:37;;;;;;;;;;;;;;;0.13;91.72;97175.35;1736405;81;20207;-85
2021/12/09 10:01:03;;;;;;;;;;;;;;;0.32;91.80;97187.27;1753735;81;25009;-86
2021/12/09 10:03:30;;;;;;;;;;;;;;;0.51;91.88;97176.88;1751567;81;20297;-85
2021/12/09 10:05:58;;;;;;;;;;;;;;;0.53;91.91;97172.95;1753467;81;25936;-85
2021/12/09 10:08:27;;;;;;;;;;;;;;;0.58;92.00;97169.23;1740904;81;25193;-85
2021/12/09 10:10:53;;;;;;;;;;;;;;;0.67;92.02;97157.63;1746871;81;20344;-85
2021/12/09 10:13:23;;;;;;;;;;;;;;;0.68;92.05;97136.13;1753546;81;25141;-86
2021/12/09 10:15:50;;;;;;;;;;;;;;;0.71;92.06;97127.78;1756526;80;22059;-85
2021/12/09 10:18:37;;;;;;;;;;;;;;;0.67;92.03;97119.84;1750361;81;26686;-85
2021/12/09 10:21:04;;;;;;;;;;;;;;;0.65;92.01;97111.84;1755295;81;24508;-85
2021/12/09 10:23:32;;;;;;;;;;;;;;;0.52;91.92;97109.05;1754858;81;20219;-85
2021/12/09 10:26:11;;;;;;;;;;;;;;;0.45;91.82;97122.30;1747179;81;24980;-85
2021/12/09 10:28:40;;;;;;;;;;;;;;;0.25;91.70;97120.29;1752922;80;22035;-85
2021/12/09 10:31:11;;;;;;;;;;;;;;;0.07;91.52;97101.06;1750971;81;27420;-85
2021/12/09 10:34:03;;;;;;;;;;;;;;;-0.04;91.34;97084.42;1749827;81;24533;-85
2021/12/09 10:36:40;;;;;;;;;;;;;;;-0.14;91.16;97102.50;1749010;81;20188;-85
2021/12/09 10:39:11;;;;;;;;;;;;;;;-0.26;90.98;97103.09;1748437;81;25115;-85
2021/12/09 10:41:42;;;;;;;;;;;;;;;-0.29;90.85;97109.67;1748236;81;20206;-85
2021/12/09 10:44:08;;;;;;;;;;;;;;;-0.34;90.77;97105.20;1754442;80;26679;-85
2021/12/09 10:46:48;;;;;;;;;;;;;;;-0.33;90.70;97106.05;1755359;80;24538;-85
2021/12/09 10:49:13;;;;;;;;;;;;;;;-0.30;90.67;97108.45;1733817;80;20258;-85
2021/12/09 10:51:44;;;;;;;;;;;;;;;-0.27;90.64;97100.13;1751175;81;24959;-85
2021/12/09 10:54:08;;;;;;;;;;;;;;;-0.25;90.64;97106.04;1722561;81;20465;-85
2021/12/09 10:56:35;;;;;;;;;;;;;;;-0.19;90.65;97097.20;1754552;80;27708;-85
2021/12/09 10:59:02;;;;;;;;;;;;;;;-0.11;90.68;97110.05;1754575;80;24528;-85
2021/12/09 11:01:30;;;;;;;;;;;;;;;-0.05;90.72;97114.06;1757291;80;20140;-85
2021/12/09 11:04:00;;;;;;;;;;;;;;;-0.02;90.75;97114.77;1753263;81;25042;-85
2021/12/09 11:06:31;;;;;;;;;;;;;;;-0.06;90.75;97128.69;1755628;80;22629;-85
2021/12/09 11:09:00;;;;;;;;;;;;;;;-0.11;90.74;97128.05;1749361;80;25986;-85
2021/12/09 11:11:36;;;;;;;;;;;;;;;-0.06;90.72;97115.83;1748009;81;24494;-85
2021/12/09 11:14:09;;;;;;;;;;;;;;;-0.08;90.72;97112.49;1753720;81;20277;-85
2021/12/09 11:16:38;;;;;;;;;;;;;;;-0.14;90.71;97110.22;1741675;81;25020;-85
2021/12/09 11:19:07;;;;;;;;;;;;;;;-0.23;90.65;97093.96;1746044;81;22834;-85
2021/12/09 11:21:40;;;;;;;;;;;;;;;-0.31;90.57;97101.19;1750977;81;26867;-85
2021/12/09 11:24:12;;;;;;;;;;;;;;;-0.27;90.51;97126.31;1755239;81;24575;-85
2021/12/09 11:29:25;;;;;;;;;;;;;;;-0.12;90.53;97110.15;1749848;81;24997;-85
2021/12/09 11:31:56;;;;;;;;;;;;;;;0.02;90.59;97109.01;1756675;81;22109;-85
2021/12/09 11:34:21;;;;;;;;;;;;;;;0.21;90.67;97129.52;1750514;81;26100;-85
2021/12/09 11:36:47;;;;;;;;;;;;;;;0.33;90.75;97132.30;1742272;81;25137;-85
2021/12/09 11:39:19;;;;;;;;;;;;;;;0.38;90.83;97117.45;1755277;81;20191;-85
2021/12/09 11:41:44;;;;;;;;;;;;;;;0.45;90.91;97132.59;1745661;81;25059;-85
2021/12/09 11:44:11;;;;;;;;;;;;;;;0.52;90.96;97144.25;1747793;80;22049;-84
2021/12/09 11:46:38;;;;;;;;;;;;;;;0.55;90.97;97147.95;1756508;81;26973;-86
2021/12/09 11:49:09;;;;;;;;;;;;;;;0.54;91.02;97130.41;1758033;81;24471;-87
2021/12/09 11:51:33;;;;;;;;;;;;;;;0.40;90.99;97131.55;1754360;80;20304;-87
2021/12/09 11:54:00;;;;;;;;;;;;;;;0.28;90.93;97136.84;1747316;81;25005;-86
2021/12/09 12:11:09;;;;;;;;;;;;;;;0.04;90.54;97121.80;1753258;81;25201;-87
2021/12/09 12:13:34;;;;;;;;;;;;;;;-0.10;90.35;97141.74;1744016;81;26011;-87
2021/12/09 12:16:21;;;;;;;;;;;;;;;-0.07;90.29;97136.47;1758358;81;25145;-87
2021/12/09 12:18:56;;;;;;;;;;;;;;;0.02;90.29;97115.44;1758317;81;20489;-87
2021/12/09 12:24:31;;;;;;;;;;;;;;;0.03;90.27;97114.98;1754745;80;22008;-86
2021/12/09 12:29:35;;;;;;;;;;;;;;;0.22;90.33;97103.70;1755606;80;24449;-86
2021/12/09 12:37:58;;;;;;;;;;;;;;;0.50;90.52;97083.84;1747443;81;22070;-86
2021/12/09 12:40:46;;;;;;;;;;;;;;;0.55;90.53;97084.89;1748034;81;25481;-87
2021/12/09 12:43:17;;;;;;;;;;;;;;;0.59;90.57;97079.98;1756382;81;23902;-87
2021/12/09 12:45:51;;;;;;;;;;;;;;;0.68;90.59;97083.36;1750635;81;20235;-86
2021/12/09 12:51:10;;;;;;;;;;;;;;;0.69;90.60;97085.02;1746390;80;22198;-88
2021/12/09 12:53:40;;;;;;;;;;;;;;;0.71;90.59;97071.63;1758276;81;26050;-86
2021/12/09 12:56:26;;;;;;;;;;;;;;;0.74;90.55;97061.16;1746082;81;24473;-86
2021/12/09 12:59:07;;;;;;;;;;;;;;;0.76;90.55;97060.14;1742845;81;20227;-86
2021/12/09 13:01:36;;;;;;;;;;;;;;;0.77;90.53;97066.96;1745843;81;24998;-86
2021/12/09 13:04:23;;;;;;;;;;;;;;;0.69;90.48;97073.44;1746618;81;21832;-87
2021/12/09 13:06:54;;;;;;;;;;;;;;;0.66;90.43;97073.13;1753105;81;25984;-86
2021/12/09 13:09:27;;;;;;;;;;;;;;;0.69;90.40;97072.16;1757811;80;24478;-86
2021/12/09 13:12:00;;;;;;;;;;;;;;;0.63;90.35;97082.77;1747810;81;20211;-86
2021/12/09 13:14:31;;;;;;;;;;;;;;;0.58;90.30;97083.46;1745842;81;20442;-87
2021/12/09 13:17:01;;;;;;;;;;;;;;;0.57;90.22;97082.63;1753588;81;22182;-86
2021/12/09 13:19:34;;;;;;;;;;;;;;;0.61;90.18;97072.98;1754140;81;26054;-86
2021/12/09 13:22:01;;;;;;;;;;;;;;;0.67;90.19;97070.09;1750946;81;24455;-87
2021/12/09 13:24:58;;;;;;;;;;;;;;;0.71;90.16;97080.64;1753476;81;20455;-87
2021/12/09 13:46:42;;;;;;;;;;;;;;;0.23;89.56;97061.64;1753819;80;25987;-87
2021/12/09 13:49:18;;;;;;;;;;;;;;;0.29;89.52;97070.34;1756950;80;24601;-85